Time;durP1;ratioP1;P1;durP2;ratioP2;P2;SDS_P1;SDS_P2;PMS_P1;PMS_P2;Temp;Humidity;BMP_temperature;BMP_pressure;BME280_temperature;BME280_humidity;BME280_pressure;Samples;Min_cycle;Max_cycle;Signal;HPM_P1;HPM_P2
2023/07/03 00:00:31;;;;;;;14.88;3.53;;;23.10;65.50;;;;;;7378097;19;20015;-72
2023/07/03 00:03:02;;;;;;;14.43;3.47;;;23.00;65.50;;;;;;7377753;19;19997;-72
2023/07/03 00:05:31;;;;;;;;;;;23.00;65.40;;;;;;7404013;19;20028;-71
2023/07/03 00:08:00;;;;;;;13.93;3.65;;;23.00;65.20;;;;;;7377077;19;19915;-71
2023/07/03 00:10:29;;;;;;;14.65;3.28;;;23.00;65.30;;;;;;7376905;19;20007;-71
2023/07/03 00:12:57;;;;;;;12.57;3.80;;;23.00;65.50;;;;;;7376326;19;20426;-71
2023/07/03 00:15:26;;;;;;;13.05;3.63;;;23.00;65.20;;;;;;7377894;19;20059;-70
2023/07/03 00:21:08;;;;;;;9.95;3.38;;;22.90;65.40;;;;;;7377618;19;19999;-72
2023/07/03 00:23:37;;;;;;;18.13;4.35;;;22.80;65.60;;;;;;7396789;19;20014;-71
2023/07/03 00:26:06;;;;;;;13.40;3.17;;;22.80;65.70;;;;;;7381074;19;20435;-71
2023/07/03 00:28:34;;;;;;;11.50;3.85;;;22.80;65.80;;;;;;7384382;19;20081;-71
2023/07/03 00:31:03;;;;;;;16.77;4.05;;;22.80;66.00;;;;;;7388108;19;20006;-71
2023/07/03 00:33:31;;;;;;;15.25;4.13;;;22.60;66.10;;;;;;7385920;19;20020;-71
2023/07/03 00:36:00;;;;;;;12.48;3.58;;;22.70;66.40;;;;;;7385899;19;20125;-71
2023/07/03 00:38:31;;;;;;;20.13;4.43;;;22.70;66.30;;;;;;7407844;19;20010;-71
2023/07/03 00:41:00;;;;;;;;;;;22.80;66.40;;;;;;7384648;19;20013;-72
2023/07/03 00:43:32;;;;;;;24.58;7.28;;;22.70;66.30;;;;;;7384059;19;19919;-71
2023/07/03 00:46:01;;;;;;;16.77;8.05;;;22.60;67.00;;;;;;7387775;19;20354;-71
2023/07/03 00:48:31;;;;;;;16.83;5.28;;;22.70;67.20;;;;;;7385381;19;20070;-70
2023/07/03 00:51:00;;;;;;;19.50;4.05;;;22.70;67.20;;;;;;7385896;19;20080;-71
2023/07/03 00:53:32;;;;;;;12.85;4.40;;;22.60;67.50;;;;;;7406164;19;20284;-71
2023/07/03 00:56:01;;;;;;;;;;;22.70;67.80;;;;;;7386934;19;20010;-71
2023/07/03 00:58:30;;;;;;;12.93;3.88;;;22.70;67.70;;;;;;7383458;19;19911;-70
2023/07/03 01:01:03;;;;;;;11.18;3.47;;;22.70;67.40;;;;;;7383820;19;20766;-71
2023/07/03 01:03:40;;;;;;;10.90;3.60;;;22.80;67.60;;;;;;7382950;19;20003;-72
2023/07/03 01:06:13;;;;;;;12.50;3.92;;;22.80;67.30;;;;;;7383526;19;20007;-70
2023/07/03 01:08:45;;;;;;;12.07;3.60;;;22.80;67.20;;;;;;7383461;19;20007;-71
2023/07/03 01:11:14;;;;;;;14.45;3.80;;;22.80;68.00;;;;;;7405017;19;20020;-71
2023/07/03 01:13:44;;;;;;;11.68;3.67;;;22.80;67.30;;;;;;7382940;19;20067;-71
2023/07/03 01:16:13;;;;;;;8.95;3.65;;;22.80;67.30;;;;;;7384750;19;20070;-71
2023/07/03 01:18:43;;;;;;;16.60;4.20;;;22.80;67.30;;;;;;7383473;19;20111;-71
2023/07/03 01:21:18;;;;;;;10.05;3.67;;;22.80;67.90;;;;;;7383612;19;20075;-70
2023/07/03 01:23:56;;;;;;;13.73;3.60;;;22.90;67.70;;;;;;7380820;19;20011;-71
2023/07/03 01:26:30;;;;;;;12.13;3.75;;;22.90;67.90;;;;;;7404459;19;20086;-71
2023/07/03 01:29:01;;;;;;;13.73;3.95;;;22.90;68.20;;;;;;7383062;19;20062;-71
2023/07/03 01:31:35;;;;;;;16.10;4.05;;;22.90;68.30;;;;;;7382189;19;20006;-70
2023/07/03 01:34:04;;;;;;;18.10;3.80;;;22.90;68.00;;;;;;7381818;19;20030;-70
2023/07/03 01:36:34;;;;;;;15.32;4.32;;;22.90;68.30;;;;;;7381644;19;20002;-71
2023/07/03 01:39:04;;;;;;;13.55;3.65;;;22.90;68.50;;;;;;7382013;19;20010;-72
2023/07/03 01:41:36;;;;;;;16.60;4.13;;;22.90;68.20;;;;;;7408200;19;20042;-71
2023/07/03 01:44:05;;;;;;;17.02;4.20;;;22.90;68.30;;;;;;7384487;19;20111;-71
2023/07/03 01:46:34;;;;;;;12.95;3.78;;;22.90;68.30;;;;;;7387524;19;20023;-70
2023/07/03 01:49:03;;;;;;;12.32;3.97;;;22.90;68.20;;;;;;7381705;19;20011;-71
2023/07/03 01:51:40;;;;;;;15.65;3.97;;;22.80;68.50;;;;;;7382218;19;20011;-71
2023/07/03 01:54:14;;;;;;;15.80;4.22;;;22.80;68.60;;;;;;7381882;19;20458;-70
2023/07/03 01:56:49;;;;;;;12.02;4.32;;;22.80;68.80;;;;;;7379651;19;20358;-71
2023/07/03 01:59:24;;;;;;;16.02;4.80;;;22.80;69.40;;;;;;7403562;19;20006;-72
2023/07/03 02:01:59;;;;;;;11.88;3.83;;;22.80;69.70;;;;;;7380580;19;20003;-70
2023/07/03 02:04:33;;;;;;;11.02;4.20;;;22.80;69.50;;;;;;7381226;19;20058;-71
2023/07/03 02:07:03;;;;;;;13.65;4.57;;;22.80;69.60;;;;;;7381496;19;20275;-71
2023/07/03 02:09:33;;;;;;;15.13;3.80;;;22.80;69.80;;;;;;7379719;19;20066;-72
2023/07/03 02:12:08;;;;;;;19.98;4.32;;;22.80;69.80;;;;;;7379758;19;20014;-71
2023/07/03 02:14:36;;;;;;;8.98;3.67;;;22.80;69.90;;;;;;7400792;19;20102;-71
2023/07/03 02:17:06;;;;;;;16.40;4.18;;;22.80;70.00;;;;;;7380416;19;20003;-72
2023/07/03 02:19:35;;;;;;;15.65;4.25;;;22.80;70.10;;;;;;7380406;19;20041;-72
2023/07/03 02:22:05;;;;;;;14.35;4.15;;;22.80;70.00;;;;;;7380162;19;20015;-70
2023/07/03 02:24:34;;;;;;;12.75;4.03;;;22.90;70.30;;;;;;7379796;19;20038;-71
2023/07/03 02:27:06;;;;;;;9.85;4.25;;;22.90;70.50;;;;;;7380778;19;20070;-71
2023/07/03 02:29:35;;;;;;;11.50;4.43;;;22.70;70.50;;;;;;7400167;19;20010;-71
2023/07/03 02:32:03;;;;;;;12.93;4.47;;;22.70;70.70;;;;;;7379828;19;20043;-71
2023/07/03 02:34:32;;;;;;;16.73;4.93;;;22.70;70.80;;;;;;7379837;19;20302;-70
2023/07/03 02:37:01;;;;;;;15.35;4.55;;;22.70;71.10;;;;;;7381441;19;20011;-71
2023/07/03 02:39:29;;;;;;;13.60;4.40;;;22.60;71.20;;;;;;7379318;19;20023;-70
2023/07/03 02:41:58;;;;;;;19.30;4.28;;;22.70;71.50;;;;;;7380804;19;20027;-71
2023/07/03 02:44:29;;;;;;;17.80;4.80;;;22.60;71.80;;;;;;7401307;19;20015;-71
2023/07/03 02:46:58;;;;;;;;;;;22.60;72.10;;;;;;7382562;19;20062;-71
2023/07/03 02:49:30;;;;;;;20.60;4.85;;;22.60;72.20;;;;;;7380916;19;19911;-70
2023/07/03 02:51:59;;;;;;;13.40;4.20;;;22.60;72.40;;;;;;7382886;19;20006;-71
2023/07/03 02:54:28;;;;;;;18.10;4.50;;;22.60;72.50;;;;;;7381969;19;20071;-71
2023/07/03 02:56:56;;;;;;;14.68;4.85;;;22.60;72.60;;;;;;7381438;19;20019;-71
2023/07/03 02:59:25;;;;;;;19.20;6.00;;;22.50;72.80;;;;;;7399649;19;20011;-71
2023/07/03 03:01:56;;;;;;;15.82;5.40;;;22.50;73.00;;;;;;7379200;19;20031;-71
2023/07/03 03:04:26;;;;;;;;;;;22.50;73.30;;;;;;7379017;19;20002;-72
2023/07/03 03:06:54;;;;;;;23.17;5.38;;;22.50;73.60;;;;;;7381032;19;19925;-73
2023/07/03 03:09:23;;;;;;;14.00;5.38;;;22.40;73.60;;;;;;7382219;19;20012;-71
2023/07/03 03:11:52;;;;;;;13.82;5.10;;;22.40;73.80;;;;;;7383909;19;20236;-71
2023/07/03 03:14:20;;;;;;;20.70;5.25;;;22.40;74.00;;;;;;7403930;19;20015;-71
2023/07/03 03:16:49;;;;;;;13.43;4.88;;;22.30;74.30;;;;;;7379178;19;20024;-71
2023/07/03 03:19:20;;;;;;;17.63;5.15;;;22.40;74.40;;;;;;7379783;19;20022;-71
2023/07/03 03:21:50;;;;;;;18.42;5.30;;;22.40;74.60;;;;;;7377751;19;20573;-71
2023/07/03 03:24:20;;;;;;;18.30;5.50;;;22.40;74.60;;;;;;7379304;19;20007;-70
2023/07/03 03:26:48;;;;;;;12.27;4.50;;;22.40;74.80;;;;;;7380635;19;20031;-70
2023/07/03 03:29:17;;;;;;;16.65;5.57;;;22.30;75.00;;;;;;7403170;19;20023;-71
2023/07/03 03:31:46;;;;;;;17.55;4.70;;;22.30;75.20;;;;;;7377672;19;20548;-71
2023/07/03 03:34:15;;;;;;;18.15;5.22;;;22.30;75.30;;;;;;7378164;19;20036;-70
2023/07/03 03:36:46;;;;;;;18.88;5.15;;;22.30;75.40;;;;;;7378022;19;20026;-69
2023/07/03 03:39:15;;;;;;;;;;;22.40;75.50;;;;;;7379131;19;20007;-71
2023/07/03 03:41:44;;;;;;;19.70;5.28;;;22.40;75.40;;;;;;7378367;19;19934;-71
2023/07/03 03:44:13;;;;;;;18.33;5.40;;;22.40;75.40;;;;;;7401641;19;20006;-69
2023/07/03 03:46:42;;;;;;;21.15;5.03;;;22.50;75.30;;;;;;7384878;19;20002;-70
2023/07/03 03:49:11;;;;;;;20.30;5.20;;;22.50;75.20;;;;;;7384784;19;20006;-70
2023/07/03 03:51:40;;;;;;;15.77;5.05;;;22.50;75.00;;;;;;7384415;19;20083;-70
2023/07/03 03:54:13;;;;;;;13.75;4.88;;;22.50;74.90;;;;;;7383471;19;20012;-71
2023/07/03 03:56:44;;;;;;;18.65;5.28;;;22.50;75.00;;;;;;7383480;19;20042;-70
2023/07/03 03:59:13;;;;;;;13.38;4.75;;;22.50;74.90;;;;;;7406057;19;20006;-71
2023/07/03 04:01:42;;;;;;;15.60;5.15;;;22.50;74.90;;;;;;7389064;19;20002;-70
2023/07/03 04:04:11;;;;;;;9.48;4.30;;;22.50;75.20;;;;;;7390316;19;20066;-74
2023/07/03 04:06:40;;;;;;;20.67;5.10;;;22.50;75.30;;;;;;7388252;19;20099;-74
2023/07/03 04:09:12;;;;;;;14.43;4.97;;;22.40;75.40;;;;;;7386851;19;20025;-75
2023/07/03 04:11:41;;;;;;;22.08;5.25;;;22.40;75.50;;;;;;7386703;19;20034;-72
2023/07/03 04:14:12;;;;;;;16.60;5.30;;;22.40;75.60;;;;;;7407493;19;20009;-71
2023/07/03 04:16:41;;;;;;;13.67;5.27;;;22.40;75.80;;;;;;7384396;19;20016;-72
2023/07/03 04:19:09;;;;;;;16.25;5.32;;;22.40;75.80;;;;;;7390027;19;20239;-72
2023/07/03 04:21:38;;;;;;;22.83;4.78;;;22.40;75.80;;;;;;7386567;19;20010;-71
2023/07/03 04:24:10;;;;;;;20.10;5.32;;;22.30;76.10;;;;;;7385553;19;20007;-72
2023/07/03 04:26:41;;;;;;;18.27;5.10;;;22.30;76.30;;;;;;7398251;19;20014;-71
2023/07/03 04:29:10;;;;;;;14.87;4.73;;;22.30;76.50;;;;;;7407202;19;20346;-73
2023/07/03 04:31:39;;;;;;;14.43;5.22;;;22.30;76.60;;;;;;7383995;19;20084;-71
2023/07/03 04:34:08;;;;;;;12.68;5.07;;;22.20;76.90;;;;;;7382660;19;20071;-71
2023/07/03 04:36:37;;;;;;;15.20;5.30;;;22.20;77.20;;;;;;7382902;19;20007;-71
2023/07/03 04:39:07;;;;;;;23.23;5.72;;;22.10;77.50;;;;;;7384250;19;20110;-71
2023/07/03 04:41:39;;;;;;;22.40;5.78;;;22.10;77.90;;;;;;7409901;19;20011;-71
2023/07/03 04:44:12;;;;;;;14.77;4.88;;;22.10;77.80;;;;;;7382377;19;20003;-71
2023/07/03 04:46:43;;;;;;;13.38;4.93;;;22.20;78.00;;;;;;7383170;19;20003;-71
2023/07/03 04:49:13;;;;;;;15.13;5.22;;;22.20;78.10;;;;;;7382403;19;20011;-72
2023/07/03 04:51:42;;;;;;;11.95;4.97;;;22.20;78.10;;;;;;7382232;19;20010;-71
2023/07/03 04:54:11;;;;;;;16.27;5.43;;;22.20;78.20;;;;;;7381404;19;20011;-71
2023/07/03 04:56:44;;;;;;;12.77;4.95;;;22.30;78.20;;;;;;7393183;19;20007;-70
2023/07/03 04:59:13;;;;;;;18.00;5.70;;;22.20;78.40;;;;;;7405196;19;20043;-71
2023/07/03 05:01:42;;;;;;;13.15;4.80;;;22.20;78.60;;;;;;7382722;19;20708;-70
2023/07/03 05:04:11;;;;;;;14.18;5.10;;;22.20;78.60;;;;;;7382383;19;20259;-70
2023/07/03 05:06:41;;;;;;;16.10;4.75;;;22.30;78.50;;;;;;7383450;19;20118;-70
2023/07/03 05:09:10;;;;;;;21.40;8.57;;;22.20;78.70;;;;;;7383192;19;20002;-71
2023/07/03 05:11:38;;;;;;;14.63;7.15;;;22.20;78.60;;;;;;7404722;19;20022;-71
2023/07/03 05:14:10;;;;;;;20.42;5.15;;;22.30;78.60;;;;;;7386005;19;20015;-71
2023/07/03 05:16:38;;;;;;;;;;;22.30;78.50;;;;;;7386349;19;20113;-71
2023/07/03 05:19:07;;;;;;;13.90;4.93;;;22.40;78.40;;;;;;7382353;19;19915;-70
2023/07/03 05:21:36;;;;;;;11.35;4.35;;;22.30;78.40;;;;;;7380727;19;20520;-70
2023/07/03 05:24:04;;;;;;;10.40;4.70;;;22.20;78.60;;;;;;7382881;19;20068;-70
2023/07/03 05:26:33;;;;;;;12.02;4.65;;;22.30;78.80;;;;;;7402020;19;20362;-70
2023/07/03 05:29:02;;;;;;;12.77;4.80;;;22.30;78.70;;;;;;7385046;19;20013;-70
2023/07/03 05:31:33;;;;;;;12.25;5.13;;;22.30;78.50;;;;;;7385992;19;20070;-70
2023/07/03 05:34:02;;;;;;;12.38;4.70;;;22.30;78.50;;;;;;7387413;19;20002;-70
2023/07/03 05:36:31;;;;;;;10.77;4.47;;;22.30;78.50;;;;;;7383494;19;20027;-70
2023/07/03 05:39:00;;;;;;;8.85;4.20;;;22.40;78.50;;;;;;7381981;19;20348;-70
2023/07/03 05:41:30;;;;;;;15.20;4.38;;;22.40;78.40;;;;;;7403421;19;20524;-70
2023/07/03 05:43:58;;;;;;;13.85;5.10;;;22.50;78.40;;;;;;7381808;19;20014;-70
2023/07/03 05:46:27;;;;;;;13.30;4.72;;;22.50;78.10;;;;;;7381540;19;20062;-70
2023/07/03 05:48:58;;;;;;;14.00;4.68;;;22.50;78.20;;;;;;7381072;19;20010;-70
2023/07/03 05:51:27;;;;;;;;;;;22.50;78.20;;;;;;7382726;19;20286;-71
2023/07/03 05:53:56;;;;;;;10.18;4.30;;;22.60;78.10;;;;;;7382257;19;19958;-70
2023/07/03 05:56:25;;;;;;;20.50;4.13;;;22.60;77.70;;;;;;7401784;19;20006;-70
2023/07/03 05:58:55;;;;;;;10.32;4.45;;;22.70;77.60;;;;;;7381004;19;20357;-70
2023/07/03 06:01:27;;;;;;;11.90;4.38;;;22.70;77.20;;;;;;7380723;19;20369;-70
2023/07/03 06:03:58;;;;;;;15.80;3.88;;;22.80;76.60;;;;;;7380289;19;20364;-70
2023/07/03 06:06:26;;;;;;;;;;;22.70;76.60;;;;;;7380736;19;20074;-71
2023/07/03 06:08:55;;;;;;;14.68;4.35;;;22.70;76.70;;;;;;7378814;19;19970;-71
2023/07/03 06:11:24;;;;;;;10.82;4.28;;;22.70;76.60;;;;;;7399530;19;20754;-71
2023/07/03 06:13:52;;;;;;;9.27;4.07;;;22.70;76.40;;;;;;7379801;19;20015;-71
2023/07/03 06:16:21;;;;;;;8.90;4.07;;;22.70;76.30;;;;;;7380778;19;20031;-71
2023/07/03 06:18:50;;;;;;;10.95;4.20;;;22.70;76.30;;;;;;7379464;19;20048;-71
2023/07/03 06:21:21;;;;;;;9.82;4.00;;;22.60;76.60;;;;;;7382430;19;20031;-71
2023/07/03 06:23:49;;;;;;;;;;;22.60;76.80;;;;;;7383695;19;20007;-71
2023/07/03 06:26:18;;;;;;;9.13;3.65;;;22.60;76.70;;;;;;7403741;19;20231;-70
2023/07/03 06:28:47;;;;;;;11.10;3.90;;;22.50;76.60;;;;;;7382393;19;20019;-70
2023/07/03 06:31:15;;;;;;;14.13;4.25;;;22.60;76.90;;;;;;7379663;19;20006;-71
2023/07/03 06:33:44;;;;;;;13.20;4.25;;;22.50;76.20;;;;;;7381712;19;20389;-71
2023/07/03 06:36:20;;;;;;;8.82;3.83;;;22.60;76.40;;;;;;7379092;19;20002;-71
2023/07/03 06:38:55;;;;;;;8.98;3.60;;;22.60;76.30;;;;;;7381756;19;20010;-70
2023/07/03 06:41:24;;;;;;;8.98;3.75;;;22.60;76.20;;;;;;7402553;19;20023;-70
2023/07/03 06:43:53;;;;;;;14.10;3.80;;;22.60;76.30;;;;;;7381699;19;20027;-70
2023/07/03 06:46:22;;;;;;;11.02;4.10;;;22.60;76.70;;;;;;7381470;19;20382;-70
2023/07/03 06:48:51;;;;;;;9.10;3.85;;;22.60;76.60;;;;;;7379887;19;20022;-70
2023/07/03 06:51:19;;;;;;;13.77;3.42;;;22.60;76.60;;;;;;7380077;19;20066;-70
2023/07/03 06:53:51;;;;;;;7.35;3.38;;;22.80;76.60;;;;;;7377676;19;20272;-71
2023/07/03 06:56:20;;;;;;;;;;;22.90;76.00;;;;;;7398911;19;20676;-71
2023/07/03 06:58:50;;;;;;;9.00;3.88;;;23.00;75.50;;;;;;7378689;19;20007;-70
2023/07/03 07:01:22;;;;;;;10.20;3.60;;;23.00;75.10;;;;;;7379296;19;20027;-69
2023/07/03 07:03:52;;;;;;;7.82;3.78;;;23.20;75.10;;;;;;7379423;19;20020;-70
2023/07/03 07:06:25;;;;;;;10.52;3.80;;;23.10;74.80;;;;;;7377775;19;20006;-70
2023/07/03 07:08:56;;;;;;;12.43;3.90;;;23.10;74.10;;;;;;7379294;19;20009;-70
2023/07/03 07:11:28;;;;;;;6.28;3.30;;;23.10;74.10;;;;;;7398682;19;20283;-69
2023/07/03 07:13:58;;;;;;;9.55;4.13;;;23.20;74.10;;;;;;7378367;19;20011;-70
2023/07/03 07:16:31;;;;;;;9.55;3.50;;;23.20;73.50;;;;;;7377852;19;20711;-70
2023/07/03 07:19:02;;;;;;;12.15;3.33;;;23.20;73.80;;;;;;7378852;19;20003;-71
2023/07/03 07:21:32;;;;;;;11.25;3.47;;;23.20;73.50;;;;;;7377556;19;20010;-71
2023/07/03 07:24:13;;;;;;;10.55;3.30;;;23.10;73.50;;;;;;7379237;19;20023;-71
2023/07/03 07:26:42;;;;;;;10.32;3.72;;;23.30;73.50;;;;;;7376458;19;20162;-71
2023/07/03 07:29:11;;;;;;;7.90;3.08;;;23.40;72.90;;;;;;7401338;19;20083;-71
2023/07/03 07:31:39;;;;;;;8.20;3.50;;;23.40;72.90;;;;;;7379004;19;20010;-71
2023/07/03 07:34:09;;;;;;;8.63;3.13;;;23.50;73.10;;;;;;7381170;19;20007;-70
2023/07/03 07:36:39;;;;;;;6.53;3.53;;;23.50;72.50;;;;;;7377995;19;20241;-70
2023/07/03 07:39:11;;;;;;;8.48;3.05;;;23.40;71.80;;;;;;7381583;19;20013;-70
2023/07/03 07:41:40;;;;;;;9.02;3.75;;;23.30;72.50;;;;;;7390055;19;20095;-70
2023/07/03 07:44:09;;;;;;;10.90;4.10;;;23.30;72.50;;;;;;7400395;19;20078;-70
2023/07/03 07:46:38;;;;;;;7.28;3.33;;;23.20;72.80;;;;;;7377619;19;20011;-70
2023/07/03 07:49:08;;;;;;;9.90;3.78;;;23.10;73.40;;;;;;7378898;19;20030;-70
2023/07/03 07:51:39;;;;;;;9.30;3.92;;;23.20;73.50;;;;;;7380833;19;20003;-70
2023/07/03 07:54:10;;;;;;;10.30;3.40;;;23.30;73.70;;;;;;7381396;19;20011;-70
2023/07/03 07:56:39;;;;;;;9.13;3.78;;;23.40;73.50;;;;;;7396363;19;20014;-70
2023/07/03 07:59:08;;;;;;;6.72;3.42;;;23.60;73.40;;;;;;7400042;19;20010;-70
2023/07/03 08:01:37;;;;;;;8.40;3.38;;;23.50;72.90;;;;;;7376405;19;20007;-70
2023/07/03 08:04:08;;;;;;;6.75;3.75;;;23.40;73.30;;;;;;7376895;19;20226;-70
2023/07/03 08:06:37;;;;;;;7.93;3.45;;;23.50;73.70;;;;;;7376743;19;20003;-70
2023/07/03 08:09:06;;;;;;;10.95;4.05;;;23.20;74.40;;;;;;7377724;19;20016;-70
2023/07/03 08:11:38;;;;;;;6.45;3.50;;;23.20;74.90;;;;;;7398536;19;20102;-70
2023/07/03 08:14:07;;;;;;;10.27;3.83;;;23.20;74.50;;;;;;7376687;19;20414;-69
2023/07/03 08:16:36;;;;;;;11.13;4.03;;;23.30;74.70;;;;;;7376846;19;19999;-70
2023/07/03 08:19:05;;;;;;;10.18;4.07;;;23.20;73.40;;;;;;7377107;19;20156;-70
2023/07/03 08:21:33;;;;;;;10.95;4.25;;;23.10;73.80;;;;;;7376675;19;20015;-70
2023/07/03 08:24:02;;;;;;;13.88;4.30;;;23.00;74.00;;;;;;7375629;19;20437;-70
2023/07/03 08:26:31;;;;;;;8.50;4.40;;;23.10;74.50;;;;;;7400954;19;20066;-70
2023/07/03 08:29:02;;;;;;;12.15;4.50;;;23.20;74.50;;;;;;7376145;19;20006;-70
2023/07/03 08:31:31;;;;;;;;;;;23.30;73.80;;;;;;7376693;19;19999;-70
2023/07/03 08:33:59;;;;;;;9.90;4.43;;;23.20;72.60;;;;;;7376193;19;19963;-71
2023/07/03 08:36:28;;;;;;;11.27;4.40;;;23.00;73.20;;;;;;7376423;19;20023;-70
2023/07/03 08:38:57;;;;;;;10.35;4.40;;;23.20;72.90;;;;;;7377163;19;20110;-70
2023/07/03 08:41:26;;;;;;;11.65;3.97;;;23.30;72.50;;;;;;7398185;19;20003;-71
2023/07/03 08:43:58;;;;;;;11.75;4.40;;;23.50;73.00;;;;;;7379407;19;20006;-70
2023/07/03 08:46:33;;;;;;;9.40;4.57;;;23.50;71.50;;;;;;7378871;19;20422;-70
2023/07/03 08:49:05;;;;;;;8.43;4.38;;;23.50;71.20;;;;;;7387169;19;20023;-70
2023/07/03 08:51:39;;;;;;;11.40;4.55;;;23.60;71.60;;;;;;7385886;19;19998;-70
2023/07/03 08:54:13;;;;;;;9.40;4.53;;;23.50;71.90;;;;;;7387400;19;20003;-70
2023/07/03 08:56:42;;;;;;;14.18;4.20;;;23.60;72.10;;;;;;7384657;19;20007;-71
2023/07/03 08:59:11;;;;;;;11.90;4.35;;;23.50;72.10;;;;;;7404677;19;20023;-71
2023/07/03 09:01:49;;;;;;;10.18;3.92;;;23.30;72.10;;;;;;7386401;19;20019;-70
2023/07/03 09:04:32;;;;;;;10.68;4.28;;;23.00;72.10;;;;;;7386465;19;20014;-70
2023/07/03 09:07:03;;;;;;;9.88;4.15;;;22.80;72.90;;;;;;7385370;19;20023;-70
2023/07/03 09:09:39;;;;;;;12.05;3.90;;;22.70;73.60;;;;;;7383144;19;20032;-70
2023/07/03 09:12:15;;;;;;;7.65;4.13;;;22.80;73.80;;;;;;7381428;19;20022;-70
2023/07/03 09:14:49;;;;;;;14.40;4.72;;;22.80;73.90;;;;;;7382853;19;20006;-71
2023/07/03 09:17:20;;;;;;;9.85;4.38;;;22.80;73.80;;;;;;7404548;19;20059;-72
2023/07/03 09:19:53;;;;;;;8.85;4.25;;;22.80;73.90;;;;;;7382091;19;20043;-71
2023/07/03 09:22:28;;;;;;;11.05;4.00;;;23.00;73.80;;;;;;7380867;19;20027;-71
2023/07/03 09:25:01;;;;;;;11.98;4.10;;;23.20;73.20;;;;;;7382090;19;20014;-70
2023/07/03 09:27:30;;;;;;;10.40;4.40;;;23.30;73.00;;;;;;7381372;19;20026;-70
2023/07/03 09:30:09;;;;;;;15.57;4.82;;;23.20;72.60;;;;;;7382742;19;20409;-71
2023/07/03 09:32:40;;;;;;;11.77;4.60;;;23.30;73.60;;;;;;7401838;19;20362;-70
2023/07/03 09:35:13;;;;;;;;;;;23.20;73.00;;;;;;7382463;19;20276;-70
2023/07/03 09:37:44;;;;;;;10.35;4.70;;;23.20;72.90;;;;;;7380917;19;19999;-70
2023/07/03 09:40:18;;;;;;;9.15;4.13;;;23.30;72.90;;;;;;7382131;19;20414;-72
2023/07/03 09:42:46;;;;;;;9.43;4.50;;;23.50;73.10;;;;;;7381182;19;20048;-70
2023/07/03 09:45:17;;;;;;;9.93;4.40;;;23.40;73.00;;;;;;7382085;19;20401;-71
2023/07/03 09:47:55;;;;;;;13.07;5.00;;;23.20;72.90;;;;;;7382170;19;20242;-71
2023/07/03 09:50:28;;;;;;;14.32;4.95;;;23.30;73.50;;;;;;7404988;19;19999;-70
2023/07/03 09:52:59;;;;;;;8.50;4.00;;;23.30;73.30;;;;;;7384550;19;20011;-71
2023/07/03 09:55:29;;;;;;;8.13;3.90;;;23.50;72.80;;;;;;7384189;19;20014;-71
2023/07/03 09:57:58;;;;;;;10.20;4.80;;;23.50;72.20;;;;;;7380174;19;20380;-71
2023/07/03 10:00:28;;;;;;;12.45;4.97;;;23.70;72.30;;;;;;7381480;19;20365;-71
2023/07/03 10:03:00;;;;;;;9.57;4.68;;;23.70;72.40;;;;;;7380113;19;20010;-71
2023/07/03 10:05:32;;;;;;;11.88;4.85;;;23.80;72.40;;;;;;7402791;19;20035;-71
2023/07/03 10:08:04;;;;;;;9.00;4.45;;;24.00;73.20;;;;;;7382379;19;20014;-71
2023/07/03 10:10:35;;;;;;;13.50;4.82;;;24.00;72.10;;;;;;7383698;19;20015;-71
2023/07/03 10:13:08;;;;;;;7.80;4.25;;;24.00;71.60;;;;;;7382675;19;20412;-71
2023/07/03 10:15:41;;;;;;;9.02;4.32;;;23.90;71.80;;;;;;7382051;19;20087;-71
2023/07/03 10:18:17;;;;;;;8.45;3.78;;;23.90;71.60;;;;;;7383134;19;20007;-71
2023/07/03 10:20:48;;;;;;;8.10;3.85;;;23.90;70.80;;;;;;7381553;19;20011;-71
2023/07/03 10:23:21;;;;;;;14.05;3.67;;;23.80;70.90;;;;;;7400397;19;20014;-71
2023/07/03 10:25:54;;;;;;;8.82;3.75;;;23.80;71.20;;;;;;7379436;19;20007;-71
2023/07/03 10:28:28;;;;;;;8.27;3.45;;;23.80;71.30;;;;;;7379905;19;20016;-70
2023/07/03 10:31:00;;;;;;;8.27;3.28;;;23.70;71.10;;;;;;7380671;19;20438;-70
2023/07/03 10:33:39;;;;;;;8.50;2.67;;;23.90;70.80;;;;;;7380181;19;20009;-70
2023/07/03 10:36:12;;;;;;;10.27;3.30;;;23.90;69.90;;;;;;7378922;19;20016;-70
2023/07/03 10:38:50;;;;;;;7.78;2.47;;;24.00;70.40;;;;;;7381623;19;20006;-72
2023/07/03 10:41:24;;;;;;;6.47;2.78;;;23.90;68.60;;;;;;7402147;19;20007;-70
2023/07/03 10:43:56;;;;;;;7.13;3.45;;;23.70;68.70;;;;;;7379812;19;20054;-71
2023/07/03 10:46:30;;;;;;;7.13;2.92;;;23.90;69.40;;;;;;7378850;19;20061;-70
2023/07/03 10:49:07;;;;;;;6.68;3.45;;;24.00;67.70;;;;;;7379305;19;20070;-70
2023/07/03 10:51:44;;;;;;;11.45;3.85;;;23.90;67.90;;;;;;7379972;19;20110;-71
2023/07/03 10:54:18;;;;;;;9.70;3.40;;;24.10;67.50;;;;;;7379761;19;20078;-70
2023/07/03 10:56:51;;;;;;;12.20;3.63;;;24.10;68.20;;;;;;7379648;19;20070;-70
2023/07/03 10:59:23;;;;;;;13.68;3.72;;;23.90;68.00;;;;;;7398875;19;20023;-72
2023/07/03 11:02:04;;;;;;;9.23;4.18;;;23.60;67.60;;;;;;7379128;19;20057;-70
2023/07/03 11:04:38;;;;;;;;;;;23.70;68.10;;;;;;7383421;19;20066;-70
2023/07/03 11:07:16;;;;;;;8.88;3.47;;;23.60;66.80;;;;;;7381088;19;19984;-70
2023/07/03 11:09:51;;;;;;;10.98;3.20;;;23.40;67.20;;;;;;7381052;19;20002;-71
2023/07/03 11:12:31;;;;;;;9.20;2.85;;;23.60;66.40;;;;;;7378407;19;20006;-71
2023/07/03 11:15:20;;;;;;;11.80;3.40;;;23.50;64.40;;;;;;7382388;19;20000;-71
2023/07/03 11:17:58;;;;;;;14.75;3.65;;;23.40;63.50;;;;;;7377439;19;20007;-71
2023/07/03 11:20:35;;;;;;;11.35;3.33;;;23.50;61.50;;;;;;7399797;19;20007;-70
2023/07/03 11:23:15;;;;;;;14.65;3.45;;;23.60;61.40;;;;;;7380027;19;20020;-70
2023/07/03 11:25:50;;;;;;;11.80;3.60;;;23.80;61.40;;;;;;7381582;19;20007;-71
2023/07/03 11:28:26;;;;;;;16.58;3.50;;;23.90;58.00;;;;;;7379244;19;20023;-70
2023/07/03 11:30:56;;;;;;;12.02;3.20;;;24.10;58.00;;;;;;7378300;19;20261;-70
2023/07/03 11:33:25;;;;;;;11.15;3.78;;;24.10;59.10;;;;;;7378167;19;20006;-70
2023/07/03 11:35:59;;;;;;;10.35;3.45;;;24.20;59.50;;;;;;7376429;19;20058;-71
2023/07/03 11:38:28;;;;;;;13.05;3.50;;;24.10;59.00;;;;;;7397497;19;20354;-71
2023/07/03 11:41:10;;;;;;;11.00;3.55;;;24.30;58.30;;;;;;7377088;19;19999;-71
2023/07/03 11:43:45;;;;;;;14.07;3.35;;;24.40;58.60;;;;;;7377522;19;20024;-71
2023/07/03 11:46:23;;;;;;;12.73;3.55;;;24.30;57.40;;;;;;7376955;19;20009;-71
2023/07/03 11:48:58;;;;;;;12.30;3.22;;;24.00;56.50;;;;;;7377806;19;20094;-71
2023/07/03 11:51:38;;;;;;;11.98;2.85;;;24.20;57.20;;;;;;7377869;19;20009;-71
2023/07/03 11:54:26;;;;;;;8.65;2.67;;;24.00;56.90;;;;;;7378538;19;20003;-71
2023/07/03 11:56:57;;;;;;;13.25;2.83;;;23.90;55.90;;;;;;7377128;19;20007;-70
2023/07/03 11:59:30;;;;;;;12.93;2.55;;;23.90;55.60;;;;;;7397014;19;20031;-70
2023/07/03 12:02:29;;;;;;;9.52;2.45;;;24.00;54.10;;;;;;7376444;19;20074;-71
2023/07/03 12:04:57;;;;;;;9.27;2.45;;;24.10;54.40;;;;;;7376700;19;20480;-70
2023/07/03 12:07:51;;;;;;;10.30;2.75;;;24.00;54.40;;;;;;7375470;19;20020;-71
2023/07/03 12:10:48;;;;;;;5.45;2.33;;;24.10;54.60;;;;;;7378904;19;20003;-71
2023/07/03 12:13:47;;;;;;;12.25;2.38;;;23.90;54.20;;;;;;7378363;19;20023;-71
2023/07/03 12:16:17;;;;;;;10.85;2.42;;;23.80;54.80;;;;;;7380082;19;20051;-71
2023/07/03 12:18:47;;;;;;;13.45;2.35;;;24.00;55.60;;;;;;7379693;19;20071;-71
2023/07/03 12:21:15;;;;;;;14.40;2.60;;;24.20;55.60;;;;;;7377950;19;20091;-70
2023/07/03 12:23:48;;;;;;;12.02;2.80;;;24.30;54.90;;;;;;7381823;19;20021;-71
2023/07/03 12:26:19;;;;;;;7.75;2.42;;;24.40;54.90;;;;;;7406496;19;20011;-71
2023/07/03 12:28:49;;;;;;;9.93;2.83;;;24.50;54.00;;;;;;7385683;19;20016;-71
2023/07/03 12:31:21;;;;;;;17.05;2.90;;;24.60;54.20;;;;;;7385893;19;20003;-71
2023/07/03 12:33:57;;;;;;;12.73;2.60;;;24.80;54.30;;;;;;7386364;19;20010;-71
2023/07/03 12:36:28;;;;;;;14.80;2.67;;;24.90;54.00;;;;;;7383250;19;20002;-71
2023/07/03 12:39:01;;;;;;;21.30;3.08;;;24.60;53.10;;;;;;7384939;19;20026;-70
2023/07/03 12:41:32;;;;;;;10.10;2.53;;;24.50;54.40;;;;;;7410158;19;20021;-71
2023/07/03 12:44:02;;;;;;;14.23;2.90;;;24.40;54.00;;;;;;7385520;19;20343;-71
2023/07/03 12:46:34;;;;;;;11.80;2.58;;;24.50;54.40;;;;;;7383006;19;20021;-71
2023/07/03 12:49:12;;;;;;;14.20;2.83;;;24.70;53.90;;;;;;7384061;19;19999;-71
2023/07/03 12:51:42;;;;;;;10.00;3.15;;;24.70;54.00;;;;;;7383940;19;20019;-70
2023/07/03 12:54:15;;;;;;;10.80;2.85;;;24.70;53.50;;;;;;7382002;19;20014;-71
2023/07/03 12:56:46;;;;;;;9.27;2.50;;;24.70;53.60;;;;;;7383363;19;20232;-71
2023/07/03 12:59:18;;;;;;;9.40;2.80;;;24.90;53.40;;;;;;7402696;19;20038;-71
2023/07/03 13:01:51;;;;;;;7.15;2.78;;;25.00;54.50;;;;;;7383669;19;20003;-70
2023/07/03 13:04:30;;;;;;;12.27;2.58;;;24.90;53.40;;;;;;7383438;19;20006;-73
2023/07/03 13:10:27;;;;;;;10.18;2.90;;;25.00;53.90;;;;;;7381425;19;20014;-75